sensor_id;sensor_type;location;lat;lon;timestamp;pressure;altitude;pressure_sealevel;temperature;humidity
24752;BME280;27246;52.376;4.628;2023-05-11T00:03:24;101349.47;;;11.47;100.00
24752;BME280;27246;52.376;4.628;2023-05-11T00:08:26;101350.72;;;11.45;100.00
24752;BME280;27246;52.376;4.628;2023-05-11T00:13:28;101341.72;;;11.51;100.00
24752;BME280;27246;52.376;4.628;2023-05-11T00:18:30;101341.88;;;11.49;100.00
24752;BME280;27246;52.376;4.628;2023-05-11T00:23:32;101343.97;;;11.47;100.00
24752;BME280;27246;52.376;4.628;2023-05-11T00:28:34;101339.81;;;11.51;100.00
24752;BME280;27246;52.376;4.628;2023-05-11T00:33:35;101343.41;;;11.52;100.00
24752;BME280;27246;52.376;4.628;2023-05-11T00:38:37;101337.91;;;11.52;100.00
24752;BME280;27246;52.376;4.628;2023-05-11T00:43:41;101335.81;;;11.54;100.00
24752;BME280;27246;52.376;4.628;2023-05-11T00:48:43;101334.44;;;11.58;100.00
24752;BME280;27246;52.376;4.628;2023-05-11T00:53:45;101325.16;;;11.51;100.00
24752;BME280;27246;52.376;4.628;2023-05-11T00:58:47;101326.53;;;11.55;100.00
24752;BME280;27246;52.376;4.628;2023-05-11T01:03:49;101327.53;;;11.54;100.00
24752;BME280;27246;52.376;4.628;2023-05-11T01:14:06;101323.44;;;11.50;100.00
24752;BME280;27246;52.376;4.628;2023-05-11T01:29:58;101339.91;;;11.27;100.00
24752;BME280;27246;52.376;4.628;2023-05-11T01:35:09;101345.06;;;11.21;100.00
24752;BME280;27246;52.376;4.628;2023-05-11T01:40:16;101336.13;;;11.19;100.00
24752;BME280;27246;52.376;4.628;2023-05-11T01:45:21;101334.06;;;11.21;100.00
24752;BME280;27246;52.376;4.628;2023-05-11T01:50:24;101341.97;;;11.25;100.00
24752;BME280;27246;52.376;4.628;2023-05-11T01:55:33;101336.09;;;11.28;100.00
24752;BME280;27246;52.376;4.628;2023-05-11T02:00:36;101328.72;;;11.28;100.00
24752;BME280;27246;52.376;4.628;2023-05-11T02:05:39;101341.41;;;11.37;100.00
24752;BME280;27246;52.376;4.628;2023-05-11T02:10:43;101339.72;;;11.36;100.00
24752;BME280;27246;52.376;4.628;2023-05-11T02:15:50;101335.19;;;11.44;100.00
24752;BME280;27246;52.376;4.628;2023-05-11T02:20:53;101333.66;;;11.41;100.00
24752;BME280;27246;52.376;4.628;2023-05-11T02:25:56;101340.00;;;11.41;100.00
24752;BME280;27246;52.376;4.628;2023-05-11T02:31:04;101345.56;;;11.33;100.00
24752;BME280;27246;52.376;4.628;2023-05-11T02:36:09;101343.50;;;11.35;100.00
24752;BME280;27246;52.376;4.628;2023-05-11T02:41:16;101346.94;;;11.37;100.00
24752;BME280;27246;52.376;4.628;2023-05-11T02:46:20;101340.72;;;11.35;100.00
24752;BME280;27246;52.376;4.628;2023-05-11T02:51:29;101349.91;;;11.19;100.00
24752;BME280;27246;52.376;4.628;2023-05-11T02:56:32;101348.03;;;11.20;100.00
24752;BME280;27246;52.376;4.628;2023-05-11T03:01:34;101356.63;;;11.25;100.00
24752;BME280;27246;52.376;4.628;2023-05-11T03:06:37;101337.84;;;11.20;100.00
24752;BME280;27246;52.376;4.628;2023-05-11T03:11:42;101339.59;;;11.13;100.00
24752;BME280;27246;52.376;4.628;2023-05-11T03:16:44;101331.16;;;11.15;100.00
24752;BME280;27246;52.376;4.628;2023-05-11T03:21:50;101346.28;;;11.27;100.00
24752;BME280;27246;52.376;4.628;2023-05-11T03:26:53;101345.25;;;11.28;100.00
24752;BME280;27246;52.376;4.628;2023-05-11T03:31:58;101341.47;;;11.21;100.00
24752;BME280;27246;52.376;4.628;2023-05-11T03:37:09;101347.00;;;11.21;100.00
24752;BME280;27246;52.376;4.628;2023-05-11T03:42:13;101339.56;;;11.21;100.00
24752;BME280;27246;52.376;4.628;2023-05-11T03:47:16;101335.25;;;11.27;100.00
24752;BME280;27246;52.376;4.628;2023-05-11T03:52:20;101337.28;;;11.33;100.00
24752;BME280;27246;52.376;4.628;2023-05-11T03:57:24;101332.31;;;11.29;100.00
24752;BME280;27246;52.376;4.628;2023-05-11T04:02:26;101335.22;;;11.35;100.00
24752;BME280;27246;52.376;4.628;2023-05-11T04:07:29;101325.94;;;11.28;100.00
24752;BME280;27246;52.376;4.628;2023-05-11T04:12:33;101327.81;;;11.28;100.00
24752;BME280;27246;52.376;4.628;2023-05-11T04:17:35;101322.66;;;11.33;100.00
24752;BME280;27246;52.376;4.628;2023-05-11T04:22:36;101328.31;;;11.39;100.00
24752;BME280;27246;52.376;4.628;2023-05-11T04:27:38;101337.25;;;11.41;100.00
24752;BME280;27246;52.376;4.628;2023-05-11T04:32:40;101346.38;;;11.50;100.00
24752;BME280;27246;52.376;4.628;2023-05-11T04:37:42;101347.56;;;11.48;100.00
24752;BME280;27246;52.376;4.628;2023-05-11T04:42:44;101352.75;;;11.51;100.00
24752;BME280;27246;52.376;4.628;2023-05-11T04:47:50;101354.13;;;11.55;100.00
24752;BME280;27246;52.376;4.628;2023-05-11T04:52:52;101359.25;;;11.58;100.00
24752;BME280;27246;52.376;4.628;2023-05-11T04:57:53;101358.53;;;11.64;100.00
24752;BME280;27246;52.376;4.628;2023-05-11T05:02:55;101360.09;;;11.67;100.00
24752;BME280;27246;52.376;4.628;2023-05-11T05:07:57;101359.75;;;11.61;100.00
24752;BME280;27246;52.376;4.628;2023-05-11T05:12:59;101360.63;;;11.62;100.00
24752;BME280;27246;52.376;4.628;2023-05-11T05:18:01;101367.16;;;11.69;100.00
24752;BME280;27246;52.376;4.628;2023-05-11T05:23:03;101366.09;;;11.70;100.00
24752;BME280;27246;52.376;4.628;2023-05-11T05:28:05;101367.84;;;11.71;100.00
24752;BME280;27246;52.376;4.628;2023-05-11T05:33:09;101374.88;;;11.74;100.00
24752;BME280;27246;52.376;4.628;2023-05-11T05:38:14;101390.22;;;11.76;100.00
24752;BME280;27246;52.376;4.628;2023-05-11T05:43:16;101396.78;;;11.75;100.00
24752;BME280;27246;52.376;4.628;2023-05-11T05:48:18;101394.72;;;11.77;100.00
24752;BME280;27246;52.376;4.628;2023-05-11T05:53:20;101404.34;;;11.81;100.00
24752;BME280;27246;52.376;4.628;2023-05-11T05:58:22;101418.00;;;11.83;100.00
24752;BME280;27246;52.376;4.628;2023-05-11T06:03:24;101414.38;;;11.83;100.00
24752;BME280;27246;52.376;4.628;2023-05-11T06:08:30;101415.56;;;11.80;100.00
24752;BME280;27246;52.376;4.628;2023-05-11T06:13:32;101420.56;;;11.85;100.00
24752;BME280;27246;52.376;4.628;2023-05-11T06:18:34;101419.84;;;11.91;100.00
24752;BME280;27246;52.376;4.628;2023-05-11T06:23:39;101424.31;;;11.92;100.00
24752;BME280;27246;52.376;4.628;2023-05-11T06:28:41;101423.31;;;11.93;100.00
24752;BME280;27246;52.376;4.628;2023-05-11T06:33:47;101421.69;;;11.98;100.00
24752;BME280;27246;52.376;4.628;2023-05-11T06:38:55;101430.53;;;11.94;100.00
24752;BME280;27246;52.376;4.628;2023-05-11T06:44:00;101420.53;;;11.93;100.00
24752;BME280;27246;52.376;4.628;2023-05-11T06:49:10;101429.47;;;12.03;100.00
24752;BME280;27246;52.376;4.628;2023-05-11T06:54:12;101437.53;;;12.13;100.00
24752;BME280;27246;52.376;4.628;2023-05-11T06:59:14;101434.22;;;12.17;100.00
24752;BME280;27246;52.376;4.628;2023-05-11T07:04:15;101425.19;;;12.24;100.00
24752;BME280;27246;52.376;4.628;2023-05-11T07:09:17;101433.78;;;12.29;100.00
24752;BME280;27246;52.376;4.628;2023-05-11T07:14:18;101438.78;;;12.42;100.00
24752;BME280;27246;52.376;4.628;2023-05-11T07:19:20;101437.31;;;12.54;100.00
24752;BME280;27246;52.376;4.628;2023-05-11T07:24:22;101424.94;;;12.65;100.00
24752;BME280;27246;52.376;4.628;2023-05-11T07:29:24;101433.50;;;12.78;100.00
24752;BME280;27246;52.376;4.628;2023-05-11T07:34:26;101428.41;;;12.90;100.00
24752;BME280;27246;52.376;4.628;2023-05-11T07:39:28;101430.66;;;12.86;100.00
24752;BME280;27246;52.376;4.628;2023-05-11T07:44:30;101443.94;;;12.91;100.00
24752;BME280;27246;52.376;4.628;2023-05-11T07:49:32;101439.59;;;13.11;100.00
24752;BME280;27246;52.376;4.628;2023-05-11T07:54:44;101437.22;;;13.08;100.00
24752;BME280;27246;52.376;4.628;2023-05-11T07:59:46;101445.19;;;13.03;100.00
24752;BME280;27246;52.376;4.628;2023-05-11T08:04:48;101442.94;;;13.07;100.00
24752;BME280;27246;52.376;4.628;2023-05-11T08:09:50;101443.53;;;13.17;100.00
24752;BME280;27246;52.376;4.628;2023-05-11T08:14:51;101450.72;;;13.26;100.00
24752;BME280;27246;52.376;4.628;2023-05-11T08:19:54;101456.84;;;13.13;100.00
24752;BME280;27246;52.376;4.628;2023-05-11T08:24:55;101454.22;;;13.20;100.00
24752;BME280;27246;52.376;4.628;2023-05-11T08:29:59;101455.94;;;13.21;100.00
24752;BME280;27246;52.376;4.628;2023-05-11T08:35:04;101457.94;;;13.12;100.00
24752;BME280;27246;52.376;4.628;2023-05-11T08:40:06;101462.22;;;13.15;100.00
24752;BME280;27246;52.376;4.628;2023-05-11T08:45:11;101469.47;;;13.16;100.00
24752;BME280;27246;52.376;4.628;2023-05-11T08:50:13;101464.91;;;13.23;100.00
24752;BME280;27246;52.376;4.628;2023-05-11T08:55:15;101473.59;;;13.20;100.00
24752;BME280;27246;52.376;4.628;2023-05-11T09:00:18;101474.38;;;13.06;100.00
24752;BME280;27246;52.376;4.628;2023-05-11T09:05:21;101477.16;;;13.06;100.00
24752;BME280;27246;52.376;4.628;2023-05-11T09:10:24;101473.03;;;13.01;100.00
24752;BME280;27246;52.376;4.628;2023-05-11T09:15:26;101475.88;;;13.16;100.00
24752;BME280;27246;52.376;4.628;2023-05-11T09:20:31;101477.38;;;13.19;100.00
24752;BME280;27246;52.376;4.628;2023-05-11T09:25:33;101474.56;;;13.42;100.00
24752;BME280;27246;52.376;4.628;2023-05-11T09:30:35;101471.34;;;13.38;100.00
24752;BME280;27246;52.376;4.628;2023-05-11T09:35:37;101468.91;;;13.58;100.00
24752;BME280;27246;52.376;4.628;2023-05-11T09:40:51;101475.59;;;13.64;100.00
24752;BME280;27246;52.376;4.628;2023-05-11T09:45:55;101483.44;;;13.60;100.00
24752;BME280;27246;52.376;4.628;2023-05-11T09:51:05;101476.81;;;13.76;100.00
24752;BME280;27246;52.376;4.628;2023-05-11T09:56:08;101483.41;;;13.90;100.00
24752;BME280;27246;52.376;4.628;2023-05-11T10:01:10;101488.09;;;13.90;100.00
24752;BME280;27246;52.376;4.628;2023-05-11T10:06:12;101497.09;;;13.92;100.00
24752;BME280;27246;52.376;4.628;2023-05-11T10:11:14;101487.81;;;13.99;100.00
24752;BME280;27246;52.376;4.628;2023-05-11T10:16:18;101490.59;;;13.99;100.00
24752;BME280;27246;52.376;4.628;2023-05-11T10:21:21;101493.16;;;14.16;100.00
24752;BME280;27246;52.376;4.628;2023-05-11T10:26:24;101488.56;;;14.23;100.00
24752;BME280;27246;52.376;4.628;2023-05-11T10:31:28;101481.78;;;14.26;100.00
24752;BME280;27246;52.376;4.628;2023-05-11T10:36:32;101482.53;;;14.34;100.00
24752;BME280;27246;52.376;4.628;2023-05-11T10:42:06;101483.47;;;14.42;100.00
24752;BME280;27246;52.376;4.628;2023-05-11T10:47:25;101479.50;;;14.51;100.00
24752;BME280;27246;52.376;4.628;2023-05-11T11:03:09;101478.94;;;14.55;95.29
24752;BME280;27246;52.376;4.628;2023-05-11T11:08:11;101475.78;;;14.58;94.35
24752;BME280;27246;52.376;4.628;2023-05-11T11:13:14;101476.63;;;14.74;95.95
24752;BME280;27246;52.376;4.628;2023-05-11T11:44:43;101468.84;;;14.84;99.29
24752;BME280;27246;52.376;4.628;2023-05-11T11:49:47;101479.19;;;14.75;97.59
24752;BME280;27246;52.376;4.628;2023-05-11T11:54:49;101476.75;;;14.87;95.88
24752;BME280;27246;52.376;4.628;2023-05-11T11:59:51;101476.88;;;14.79;93.67
24752;BME280;27246;52.376;4.628;2023-05-11T12:04:57;101482.88;;;14.83;91.13
24752;BME280;27246;52.376;4.628;2023-05-11T12:10:04;101485.81;;;14.96;89.64
24752;BME280;27246;52.376;4.628;2023-05-11T12:15:07;101488.13;;;15.14;87.50
24752;BME280;27246;52.376;4.628;2023-05-11T12:20:14;101485.72;;;15.11;86.46
24752;BME280;27246;52.376;4.628;2023-05-11T12:25:18;101492.72;;;15.07;88.64
24752;BME280;27246;52.376;4.628;2023-05-11T12:30:22;101497.41;;;14.85;88.23
24752;BME280;27246;52.376;4.628;2023-05-11T12:35:27;101498.38;;;14.92;90.95
24752;BME280;27246;52.376;4.628;2023-05-11T12:40:29;101485.47;;;14.84;89.74
24752;BME280;27246;52.376;4.628;2023-05-11T12:45:31;101491.13;;;14.97;91.69
24752;BME280;27246;52.376;4.628;2023-05-11T12:50:40;101488.59;;;14.96;92.32
24752;BME280;27246;52.376;4.628;2023-05-11T12:55:58;101470.47;;;14.78;93.82
24752;BME280;27246;52.376;4.628;2023-05-11T13:01:00;101482.22;;;14.80;96.64
24752;BME280;27246;52.376;4.628;2023-05-11T13:06:12;101475.22;;;14.85;95.01
24752;BME280;27246;52.376;4.628;2023-05-11T13:16:30;101470.22;;;14.95;93.77
24752;BME280;27246;52.376;4.628;2023-05-11T13:21:34;101468.41;;;14.87;88.88
24752;BME280;27246;52.376;4.628;2023-05-11T13:26:37;101486.97;;;14.87;90.21
24752;BME280;27246;52.376;4.628;2023-05-11T13:31:49;101495.63;;;14.77;89.45
24752;BME280;27246;52.376;4.628;2023-05-11T13:36:51;101496.38;;;14.86;89.13
24752;BME280;27246;52.376;4.628;2023-05-11T13:41:53;101489.38;;;14.90;89.56
24752;BME280;27246;52.376;4.628;2023-05-11T13:46:56;101491.09;;;14.91;87.30
24752;BME280;27246;52.376;4.628;2023-05-11T13:51:58;101486.38;;;14.91;85.66
24752;BME280;27246;52.376;4.628;2023-05-11T13:57:01;101487.50;;;14.97;84.42
24752;BME280;27246;52.376;4.628;2023-05-11T14:02:04;101493.78;;;15.27;82.99
24752;BME280;27246;52.376;4.628;2023-05-11T14:07:06;101499.88;;;15.16;75.28
24752;BME280;27246;52.376;4.628;2023-05-11T14:12:08;101493.53;;;15.22;76.69
24752;BME280;27246;52.376;4.628;2023-05-11T14:17:10;101483.75;;;15.26;75.97
24752;BME280;27246;52.376;4.628;2023-05-11T14:22:16;101491.41;;;15.24;75.22
24752;BME280;27246;52.376;4.628;2023-05-11T14:27:17;101504.41;;;15.24;75.81
24752;BME280;27246;52.376;4.628;2023-05-11T14:32:19;101502.94;;;15.28;79.35
24752;BME280;27246;52.376;4.628;2023-05-11T14:37:21;101492.81;;;15.42;81.01
24752;BME280;27246;52.376;4.628;2023-05-11T14:42:23;101497.47;;;15.34;82.38
24752;BME280;27246;52.376;4.628;2023-05-11T14:47:24;101488.06;;;15.35;83.50
24752;BME280;27246;52.376;4.628;2023-05-11T14:52:26;101494.56;;;15.43;83.31
24752;BME280;27246;52.376;4.628;2023-05-11T14:57:28;101502.22;;;15.40;81.26
24752;BME280;27246;52.376;4.628;2023-05-11T15:02:30;101498.72;;;15.32;84.02
24752;BME280;27246;52.376;4.628;2023-05-11T15:07:32;101493.56;;;15.29;83.73
24752;BME280;27246;52.376;4.628;2023-05-11T15:12:33;101495.09;;;15.31;83.11
24752;BME280;27246;52.376;4.628;2023-05-11T15:17:36;101496.03;;;15.17;83.53
24752;BME280;27246;52.376;4.628;2023-05-11T15:22:38;101503.19;;;15.05;85.25
24752;BME280;27246;52.376;4.628;2023-05-11T15:27:39;101499.97;;;15.08;84.64
24752;BME280;27246;52.376;4.628;2023-05-11T15:32:42;101498.34;;;15.13;85.04
24752;BME280;27246;52.376;4.628;2023-05-11T15:37:43;101506.75;;;15.20;86.07
24752;BME280;27246;52.376;4.628;2023-05-11T15:42:45;101500.72;;;15.16;85.56
24752;BME280;27246;52.376;4.628;2023-05-11T15:47:47;101496.88;;;15.17;85.73
24752;BME280;27246;52.376;4.628;2023-05-11T15:52:49;101494.03;;;15.32;86.42
24752;BME280;27246;52.376;4.628;2023-05-11T15:57:55;101493.38;;;15.30;85.79
24752;BME280;27246;52.376;4.628;2023-05-11T16:02:57;101497.34;;;15.21;86.70
24752;BME280;27246;52.376;4.628;2023-05-11T16:08:02;101496.97;;;15.24;89.00
24752;BME280;27246;52.376;4.628;2023-05-11T16:13:07;101494.56;;;15.21;89.37
24752;BME280;27246;52.376;4.628;2023-05-11T16:18:12;101491.34;;;15.17;90.04
24752;BME280;27246;52.376;4.628;2023-05-11T16:23:15;101489.09;;;15.06;90.32
24752;BME280;27246;52.376;4.628;2023-05-11T16:28:19;101484.59;;;15.27;89.64
24752;BME280;27246;52.376;4.628;2023-05-11T16:33:21;101490.59;;;15.30;88.48
24752;BME280;27246;52.376;4.628;2023-05-11T16:38:23;101488.06;;;15.35;88.72
24752;BME280;27246;52.376;4.628;2023-05-11T16:43:24;101487.22;;;15.35;88.30
24752;BME280;27246;52.376;4.628;2023-05-11T16:48:27;101484.09;;;15.45;88.22
24752;BME280;27246;52.376;4.628;2023-05-11T16:53:28;101480.88;;;15.41;87.08
24752;BME280;27246;52.376;4.628;2023-05-11T16:58:30;101477.69;;;15.44;87.54
24752;BME280;27246;52.376;4.628;2023-05-11T17:03:35;101489.47;;;15.46;86.60
24752;BME280;27246;52.376;4.628;2023-05-11T17:08:37;101495.88;;;15.47;86.05
24752;BME280;27246;52.376;4.628;2023-05-11T17:13:39;101505.25;;;15.46;86.75
24752;BME280;27246;52.376;4.628;2023-05-11T17:18:41;101503.03;;;15.34;87.38
24752;BME280;27246;52.376;4.628;2023-05-11T17:23:43;101508.31;;;15.29;87.97
24752;BME280;27246;52.376;4.628;2023-05-11T17:28:45;101502.09;;;15.27;87.79
24752;BME280;27246;52.376;4.628;2023-05-11T17:33:47;101506.09;;;15.18;89.24
24752;BME280;27246;52.376;4.628;2023-05-11T17:38:50;101513.53;;;15.17;90.07
24752;BME280;27246;52.376;4.628;2023-05-11T17:43:54;101504.22;;;15.04;90.43
24752;BME280;27246;52.376;4.628;2023-05-11T17:48:56;101509.09;;;15.02;91.69
24752;BME280;27246;52.376;4.628;2023-05-11T17:53:58;101514.66;;;15.02;91.90
24752;BME280;27246;52.376;4.628;2023-05-11T17:58:59;101510.97;;;14.94;92.69
24752;BME280;27246;52.376;4.628;2023-05-11T18:04:01;101511.09;;;14.86;93.99
24752;BME280;27246;52.376;4.628;2023-05-11T18:09:05;101511.03;;;14.79;97.24
24752;BME280;27246;52.376;4.628;2023-05-11T18:14:07;101512.38;;;14.84;98.58
24752;BME280;27246;52.376;4.628;2023-05-11T18:19:10;101522.50;;;14.76;100.00
24752;BME280;27246;52.376;4.628;2023-05-11T18:24:12;101528.75;;;14.49;99.73
24752;BME280;27246;52.376;4.628;2023-05-11T18:29:15;101531.75;;;14.47;99.76
24752;BME280;27246;52.376;4.628;2023-05-11T18:34:20;101542.91;;;14.39;99.74
24752;BME280;27246;52.376;4.628;2023-05-11T18:39:21;101535.66;;;14.38;99.82
24752;BME280;27246;52.376;4.628;2023-05-11T18:44:23;101546.81;;;14.45;99.83
24752;BME280;27246;52.376;4.628;2023-05-11T18:49:25;101558.78;;;14.45;99.46
24752;BME280;27246;52.376;4.628;2023-05-11T18:54:26;101565.84;;;14.33;98.63
24752;BME280;27246;52.376;4.628;2023-05-11T18:59:28;101568.25;;;14.36;97.91
24752;BME280;27246;52.376;4.628;2023-05-11T19:04:30;101575.59;;;14.29;98.60
24752;BME280;27246;52.376;4.628;2023-05-11T19:09:33;101574.25;;;14.25;98.58
24752;BME280;27246;52.376;4.628;2023-05-11T19:14:35;101574.66;;;14.22;98.78
24752;BME280;27246;52.376;4.628;2023-05-11T19:19:37;101575.69;;;14.20;97.29
24752;BME280;27246;52.376;4.628;2023-05-11T19:24:39;101577.44;;;14.22;97.41
24752;BME280;27246;52.376;4.628;2023-05-11T19:29:41;101583.66;;;14.24;97.12
24752;BME280;27246;52.376;4.628;2023-05-11T19:34:43;101599.44;;;14.23;96.12
24752;BME280;27246;52.376;4.628;2023-05-11T19:39:45;101605.69;;;14.02;96.29
24752;BME280;27246;52.376;4.628;2023-05-11T19:44:47;101605.03;;;14.00;96.42
24752;BME280;27246;52.376;4.628;2023-05-11T19:49:50;101616.84;;;13.94;96.02
24752;BME280;27246;52.376;4.628;2023-05-11T19:54:52;101620.19;;;13.89;96.20
24752;BME280;27246;52.376;4.628;2023-05-11T19:59:55;101625.34;;;13.92;96.73
24752;BME280;27246;52.376;4.628;2023-05-11T20:04:57;101622.47;;;13.71;95.47
24752;BME280;27246;52.376;4.628;2023-05-11T20:09:59;101623.66;;;13.68;95.40
24752;BME280;27246;52.376;4.628;2023-05-11T20:15:00;101635.22;;;13.49;94.99
24752;BME280;27246;52.376;4.628;2023-05-11T20:20:02;101641.78;;;13.48;95.23
24752;BME280;27246;52.376;4.628;2023-05-11T20:25:05;101637.13;;;13.56;95.71
24752;BME280;27246;52.376;4.628;2023-05-11T20:30:18;101640.50;;;13.67;96.85
24752;BME280;27246;52.376;4.628;2023-05-11T20:35:20;101640.03;;;13.55;96.13
24752;BME280;27246;52.376;4.628;2023-05-11T20:40:22;101646.31;;;13.49;96.18
24752;BME280;27246;52.376;4.628;2023-05-11T20:45:26;101639.25;;;13.38;97.25
24752;BME280;27246;52.376;4.628;2023-05-11T20:50:28;101644.00;;;13.29;98.72
24752;BME280;27246;52.376;4.628;2023-05-11T20:55:29;101649.25;;;13.24;99.52
24752;BME280;27246;52.376;4.628;2023-05-11T21:00:31;101651.47;;;13.29;98.85
24752;BME280;27246;52.376;4.628;2023-05-11T21:05:37;101654.41;;;13.27;99.58
24752;BME280;27246;52.376;4.628;2023-05-11T21:10:40;101657.34;;;13.26;98.90
24752;BME280;27246;52.376;4.628;2023-05-11T21:15:42;101663.44;;;13.21;98.50
24752;BME280;27246;52.376;4.628;2023-05-11T21:20:44;101659.53;;;13.07;98.58
24752;BME280;27246;52.376;4.628;2023-05-11T21:25:51;101661.78;;;13.04;99.08
24752;BME280;27246;52.376;4.628;2023-05-11T21:30:53;101667.16;;;13.05;99.09
24752;BME280;27246;52.376;4.628;2023-05-11T21:35:57;101667.31;;;13.04;98.02
24752;BME280;27246;52.376;4.628;2023-05-11T21:40:59;101672.72;;;12.97;98.30
24752;BME280;27246;52.376;4.628;2023-05-11T21:46:00;101673.94;;;12.94;98.23
24752;BME280;27246;52.376;4.628;2023-05-11T21:51:02;101667.81;;;12.76;98.62
24752;BME280;27246;52.376;4.628;2023-05-11T21:56:07;101661.91;;;12.79;97.54
24752;BME280;27246;52.376;4.628;2023-05-11T22:01:10;101668.38;;;12.63;98.74
24752;BME280;27246;52.376;4.628;2023-05-11T22:06:12;101669.72;;;12.67;97.71
24752;BME280;27246;52.376;4.628;2023-05-11T22:11:14;101669.56;;;12.69;97.42
24752;BME280;27246;52.376;4.628;2023-05-11T22:16:15;101669.78;;;12.51;97.25
24752;BME280;27246;52.376;4.628;2023-05-11T22:21:17;101682.69;;;12.67;98.06
24752;BME280;27246;52.376;4.628;2023-05-11T22:26:19;101682.00;;;12.65;96.71
24752;BME280;27246;52.376;4.628;2023-05-11T22:31:21;101684.63;;;12.58;96.31
24752;BME280;27246;52.376;4.628;2023-05-11T22:36:22;101677.34;;;12.65;96.26
24752;BME280;27246;52.376;4.628;2023-05-11T22:41:25;101688.59;;;12.64;95.72
24752;BME280;27246;52.376;4.628;2023-05-11T22:46:27;101686.72;;;12.56;95.64
24752;BME280;27246;52.376;4.628;2023-05-11T22:51:28;101694.84;;;12.57;94.24
24752;BME280;27246;52.376;4.628;2023-05-11T22:56:30;101695.53;;;12.43;94.19
24752;BME280;27246;52.376;4.628;2023-05-11T23:01:32;101694.69;;;12.43;94.59
24752;BME280;27246;52.376;4.628;2023-05-11T23:06:35;101700.56;;;12.48;94.23
24752;BME280;27246;52.376;4.628;2023-05-11T23:11:37;101691.09;;;12.17;94.83
24752;BME280;27246;52.376;4.628;2023-05-11T23:16:38;101690.56;;;12.38;94.91
24752;BME280;27246;52.376;4.628;2023-05-11T23:21:40;101699.72;;;12.31;93.70
24752;BME280;27246;52.376;4.628;2023-05-11T23:26:42;101700.59;;;12.23;94.89
24752;BME280;27246;52.376;4.628;2023-05-11T23:31:43;101685.56;;;12.34;94.26
24752;BME280;27246;52.376;4.628;2023-05-11T23:36:45;101690.91;;;12.27;95.39
24752;BME280;27246;52.376;4.628;2023-05-11T23:41:47;101689.34;;;12.16;95.32
24752;BME280;27246;52.376;4.628;2023-05-11T23:46:49;101686.41;;;12.18;95.57
24752;BME280;27246;52.376;4.628;2023-05-11T23:51:50;101670.38;;;12.21;96.73
24752;BME280;27246;52.376;4.628;2023-05-11T23:56:58;101668.63;;;12.20;96.47
